Hilly, Louisiana
Current Conditions -  °F | °C
As of 3:35 AM on Monday 24 Nov 2014 (Local Time) from KRSN Reporting Station
Scattered Clouds Scattered Clouds  
Wind Chill: 53°   Ceiling: Unl
Heat Index: 53°   Visibility: 10mi
Dew Point: 44°   Wind: 8mph
Humidity: 73%   Direction: 290°WNW
Pressure: 29.8"   Gusts: 20mph
Location:  32.6988°N, 92.6981°W
Report Text: KRSN 240935Z AUTO 29007G17KT 250V330 10SM SCT025 12/07 A2980 RMK AO2 P0001 T01150069
Loading
Personal Weather Stations






























Interactive Weather Map New forecast layout! Learn more

10-Day Weather Forecast

Advertisements
Track Severe Weather on mobile